Time;durP1;ratioP1;P1;durP2;ratioP2;P2;SDS_P1;SDS_P2;PMS_P1;PMS_P2;Temp;Humidity;BMP_temperature;BMP_pressure;BME280_temperature;BME280_humidity;BME280_pressure;Samples;Min_cycle;Max_cycle;Signal;HPM_P1;HPM_P2
2021/04/30 00:00:40;;;;;;;1999.90;999.90;;;14.40;88.70;;;;;;5053867;28;20203;-44
2021/04/30 00:03:07;;;;;;;1999.90;999.90;;;14.40;88.50;;;;;;5053750;28;20172;-42
2021/04/30 00:05:35;;;;;;;1999.90;999.90;;;14.30;89.40;;;;;;5053773;28;20161;-42
2021/04/30 00:08:02;;;;;;;1999.90;999.90;;;14.20;89.90;;;;;;5053571;28;20189;-43
2021/04/30 00:10:29;;;;;;;1999.90;999.90;;;14.10;90.00;;;;;;5053548;28;20289;-42
2021/04/30 00:12:56;;;;;;;1999.90;999.90;;;14.00;90.10;;;;;;5053624;28;20165;-43
2021/04/30 00:15:23;;;;;;;1999.90;999.90;;;13.90;90.70;;;;;;5053570;28;20169;-42
2021/04/30 00:17:50;;;;;;;1999.90;999.90;;;13.80;90.80;;;;;;5053604;28;20211;-42
2021/04/30 00:20:18;;;;;;;1999.90;999.90;;;13.70;91.40;;;;;;5053575;28;20177;-42
2021/04/30 00:22:44;;;;;;;1999.90;999.90;;;13.60;91.50;;;;;;5053413;28;20191;-42
2021/04/30 00:25:12;;;;;;;1999.90;999.90;;;13.50;91.90;;;;;;5053400;28;20216;-42
2021/04/30 00:27:39;;;;;;;1999.90;999.90;;;13.50;91.30;;;;;;5053323;28;20177;-42
2021/04/30 00:30:07;;;;;;;1999.90;999.90;;;13.60;91.20;;;;;;5053213;28;20632;-42
2021/04/30 00:32:35;;;;;;;1999.90;999.90;;;13.60;90.80;;;;;;5053217;28;20251;-42
2021/04/30 00:35:04;;;;;;;1999.90;999.90;;;13.40;91.70;;;;;;5053231;28;20187;-41
2021/04/30 00:37:31;;;;;;;1999.90;999.90;;;13.50;91.60;;;;;;5053143;28;20296;-42
2021/04/30 00:39:58;;;;;;;1999.90;999.90;;;13.50;91.30;;;;;;5053189;28;20223;-42
2021/04/30 00:42:25;;;;;;;1999.90;999.90;;;13.50;91.50;;;;;;5052981;28;20216;-42
2021/04/30 00:44:52;;;;;;;1999.90;999.90;;;13.60;91.30;;;;;;5053086;28;20531;-42
2021/04/30 00:47:46;;;;;;;1999.90;999.90;;;13.50;91.60;;;;;;5053152;28;20169;-42
2021/04/30 00:50:13;;;;;;;1999.90;999.90;;;13.50;91.60;;;;;;5051130;28;20220;-42
2021/04/30 00:52:40;;;;;;;1999.90;999.90;;;13.40;91.50;;;;;;5052902;28;20627;-43
2021/04/30 00:55:10;;;;;;;1999.90;999.90;;;13.50;91.40;;;;;;5052911;28;20536;-43
2021/04/30 00:57:41;;;;;;;1999.90;999.90;;;13.60;90.90;;;;;;5052916;28;20624;-42
2021/04/30 01:00:10;;;;;;;1999.90;999.90;;;13.60;90.90;;;;;;5052896;28;20244;-46
2021/04/30 01:02:39;;;;;;;1999.90;999.90;;;13.60;90.90;;;;;;5052778;28;20212;-42
2021/04/30 01:05:07;;;;;;;1999.90;999.90;;;13.50;91.00;;;;;;5052824;28;20165;-42
2021/04/30 01:07:34;;;;;;;1999.90;999.90;;;13.50;90.70;;;;;;5052795;28;20175;-42
2021/04/30 01:10:03;;;;;;;1999.90;999.90;;;13.60;90.70;;;;;;5052672;28;20161;-42
2021/04/30 01:12:30;;;;;;;1999.90;999.90;;;13.50;91.10;;;;;;5052750;28;20184;-42
2021/04/30 01:14:57;;;;;;;1999.90;999.90;;;13.60;90.60;;;;;;5052192;28;20161;-42
2021/04/30 01:17:24;;;;;;;1999.90;999.90;;;13.60;90.60;;;;;;5052798;28;20160;-42
2021/04/30 01:19:51;;;;;;;1999.90;999.90;;;13.50;90.80;;;;;;5052817;28;20620;-42
2021/04/30 01:22:37;;;;;;;1999.90;999.90;;;13.50;90.90;;;;;;5052667;28;20218;-42
2021/04/30 01:25:07;;;;;;;1999.90;999.90;;;13.30;91.60;;;;;;5052742;28;20671;-42
2021/04/30 01:27:33;;;;;;;1999.90;999.90;;;13.10;91.50;;;;;;5052625;28;20259;-42
2021/04/30 01:30:01;;;;;;;1999.90;999.90;;;13.00;92.30;;;;;;5052484;28;20248;-42
2021/04/30 01:32:28;;;;;;;1999.90;999.90;;;12.90;92.60;;;;;;5052535;28;20165;-42
2021/04/30 01:34:54;;;;;;;1999.90;999.90;;;12.90;92.70;;;;;;5052955;28;20535;-42
2021/04/30 01:37:21;;;;;;;1999.90;999.90;;;12.90;92.80;;;;;;5052585;28;20672;-42
2021/04/30 01:39:48;;;;;;;1999.90;999.90;;;12.80;92.60;;;;;;5052506;28;20196;-42
2021/04/30 01:42:15;;;;;;;1999.90;999.90;;;12.70;93.00;;;;;;5052388;28;20227;-42
2021/04/30 01:44:42;;;;;;;1999.90;999.90;;;12.60;93.20;;;;;;5052455;28;20161;-42
2021/04/30 01:47:09;;;;;;;1999.90;999.90;;;12.70;93.20;;;;;;5052438;28;20250;-42
2021/04/30 01:49:35;;;;;;;1999.90;999.90;;;12.70;93.30;;;;;;5052379;28;20176;-42
2021/04/30 01:52:02;;;;;;;1999.90;999.90;;;12.80;92.20;;;;;;5052365;28;20212;-42
2021/04/30 01:54:29;;;;;;;1999.90;999.90;;;12.80;92.70;;;;;;5052334;28;20181;-42
2021/04/30 01:56:56;;;;;;;1999.90;999.90;;;12.90;92.30;;;;;;5052472;28;20170;-42
2021/04/30 01:59:23;;;;;;;1999.90;999.90;;;12.80;92.40;;;;;;5052364;28;20228;-42
2021/04/30 02:01:49;;;;;;;1999.90;999.90;;;12.70;93.00;;;;;;5052288;28;20255;-42
2021/04/30 02:04:16;;;;;;;1999.90;999.90;;;12.70;93.00;;;;;;5052380;28;20224;-42
2021/04/30 02:06:46;;;;;;;1999.90;999.90;;;12.70;92.90;;;;;;5052235;28;20170;-42
2021/04/30 02:09:13;;;;;;;1999.90;999.90;;;12.70;93.10;;;;;;5052272;28;20252;-42
2021/04/30 02:11:39;;;;;;;1999.90;999.90;;;12.60;92.90;;;;;;5052197;28;20203;-42
2021/04/30 02:14:06;;;;;;;1999.90;999.90;;;12.70;92.80;;;;;;5052179;28;20173;-42
2021/04/30 02:16:34;;;;;;;1999.90;999.90;;;12.70;92.70;;;;;;5052220;28;20177;-42
2021/04/30 02:19:01;;;;;;;1999.90;999.90;;;12.70;92.30;;;;;;5052181;28;20181;-42
2021/04/30 02:21:28;;;;;;;1999.90;999.90;;;12.80;92.30;;;;;;5052272;28;20518;-42
2021/04/30 02:23:55;;;;;;;1999.90;999.90;;;12.70;92.30;;;;;;5052086;28;20166;-42
2021/04/30 02:26:25;;;;;;;1999.90;999.90;;;12.70;92.40;;;;;;5053881;28;20184;-42
2021/04/30 02:28:52;;;;;;;1999.90;999.90;;;12.80;92.20;;;;;;5056202;28;20181;-42
2021/04/30 02:31:19;;;;;;;1999.90;999.90;;;12.80;92.30;;;;;;5055538;28;20207;-43
2021/04/30 02:33:46;;;;;;;1999.90;999.90;;;12.80;92.50;;;;;;5055657;28;20180;-42
2021/04/30 02:36:13;;;;;;;1999.90;999.90;;;12.80;92.80;;;;;;5055521;28;20173;-43
2021/04/30 02:38:39;;;;;;;1999.90;999.90;;;12.80;93.10;;;;;;5055528;28;20236;-42
2021/04/30 02:41:06;;;;;;;1999.90;999.90;;;12.70;93.40;;;;;;5055227;28;20246;-42
2021/04/30 02:43:33;;;;;;;1999.90;999.90;;;12.60;92.90;;;;;;5055320;28;20177;-42
2021/04/30 02:46:02;;;;;;;1999.90;999.90;;;12.60;92.90;;;;;;5055452;28;20658;-42
2021/04/30 02:48:32;;;;;;;1999.90;999.90;;;12.60;93.60;;;;;;5055407;28;20258;-42
2021/04/30 02:51:01;;;;;;;1999.90;999.90;;;12.60;93.10;;;;;;5055358;28;20732;-42
2021/04/30 02:53:28;;;;;;;1999.90;999.90;;;12.50;93.50;;;;;;5055224;28;20165;-42
2021/04/30 02:55:55;;;;;;;1999.90;999.90;;;12.40;93.70;;;;;;5055167;28;20579;-42
2021/04/30 02:58:22;;;;;;;1999.90;999.90;;;12.40;93.80;;;;;;5055067;28;20581;-42
2021/04/30 03:00:49;;;;;;;1999.90;999.90;;;12.30;94.30;;;;;;5055098;28;20525;-42
2021/04/30 03:03:16;;;;;;;1999.90;999.90;;;12.20;94.00;;;;;;5055026;28;20207;-42
2021/04/30 03:05:44;;;;;;;1999.90;999.90;;;12.20;94.20;;;;;;5054995;28;20581;-45
2021/04/30 03:08:11;;;;;;;1999.90;999.90;;;12.20;94.20;;;;;;5054916;28;20215;-42
2021/04/30 03:10:38;;;;;;;1999.90;999.90;;;12.20;94.40;;;;;;5054804;28;20295;-42
2021/04/30 03:13:05;;;;;;;1999.90;999.90;;;12.20;94.40;;;;;;5054825;28;20253;-42
2021/04/30 03:15:32;;;;;;;1999.90;999.90;;;12.10;94.40;;;;;;5054913;28;20176;-42
2021/04/30 03:17:59;;;;;;;1999.90;999.90;;;12.10;94.20;;;;;;5054727;28;20649;-42
2021/04/30 03:20:26;;;;;;;1999.90;999.90;;;12.10;94.40;;;;;;5054692;28;20169;-42
2021/04/30 03:22:52;;;;;;;1999.90;999.90;;;12.20;94.30;;;;;;5054593;28;20173;-42
2021/04/30 03:25:20;;;;;;;1999.90;999.90;;;12.30;93.90;;;;;;5054551;28;20171;-42
2021/04/30 03:27:46;;;;;;;1999.90;999.90;;;12.40;93.70;;;;;;5054544;28;20226;-42
2021/04/30 03:30:14;;;;;;;1999.90;999.90;;;12.40;93.90;;;;;;5054490;28;20208;-42
2021/04/30 03:32:42;;;;;;;1999.90;999.90;;;12.40;94.40;;;;;;5054389;28;20180;-42
2021/04/30 03:35:15;;;;;;;1999.90;999.90;;;12.40;93.90;;;;;;5054427;28;20226;-42
2021/04/30 03:37:42;;;;;;;1999.90;999.90;;;12.30;94.00;;;;;;5053879;28;20529;-42
2021/04/30 03:40:10;;;;;;;1999.90;999.90;;;12.30;94.40;;;;;;5054311;28;20161;-42
2021/04/30 03:42:37;;;;;;;1999.90;999.90;;;12.10;95.00;;;;;;5054038;28;20232;-42
2021/04/30 03:45:05;;;;;;;1999.90;999.90;;;12.00;95.40;;;;;;5054431;28;20196;-42
2021/04/30 03:47:32;;;;;;;1999.90;999.90;;;11.90;95.50;;;;;;5054178;28;20307;-42
2021/04/30 03:49:58;;;;;;;1999.90;999.90;;;11.80;95.60;;;;;;5054132;28;20726;-42
2021/04/30 03:52:25;;;;;;;1999.90;999.90;;;11.80;96.00;;;;;;5054137;28;20521;-42
2021/04/30 03:54:52;;;;;;;1999.90;999.90;;;11.70;96.50;;;;;;5054010;28;20634;-41
2021/04/30 03:57:19;;;;;;;1999.90;999.90;;;11.50;97.70;;;;;;5054030;28;20172;-42
2021/04/30 03:59:46;;;;;;;1999.90;999.90;;;11.40;97.90;;;;;;5053974;28;20169;-42
2021/04/30 04:02:13;;;;;;;1999.90;999.90;;;11.40;97.50;;;;;;5053882;28;20165;-42
2021/04/30 04:04:40;;;;;;;1999.90;999.90;;;11.40;97.80;;;;;;5053779;28;20656;-42
2021/04/30 04:07:06;;;;;;;1999.90;999.90;;;11.40;97.90;;;;;;5053793;28;20165;-42
2021/04/30 04:09:33;;;;;;;1999.90;999.90;;;11.40;97.80;;;;;;5053678;28;20677;-42
2021/04/30 04:12:00;;;;;;;1999.90;999.90;;;11.60;97.70;;;;;;5053465;28;20310;-42
2021/04/30 04:14:27;;;;;;;1999.90;999.90;;;11.60;97.30;;;;;;5053599;28;20239;-42
2021/04/30 04:16:54;;;;;;;1999.90;999.90;;;11.70;97.00;;;;;;5053476;28;20169;-41
2021/04/30 04:19:21;;;;;;;1999.90;999.90;;;11.70;97.00;;;;;;5053407;28;20686;-43
2021/04/30 04:21:47;;;;;;;1999.90;999.90;;;11.80;97.00;;;;;;5053464;28;20172;-42
2021/04/30 04:24:14;;;;;;;1999.90;999.90;;;11.80;97.00;;;;;;5053345;28;20169;-42
2021/04/30 04:26:41;;;;;;;1999.90;999.90;;;11.80;97.20;;;;;;5052032;28;20216;-42
2021/04/30 04:29:08;;;;;;;1999.90;999.90;;;11.80;97.10;;;;;;5053371;28;20223;-42
2021/04/30 04:31:36;;;;;;;1999.90;999.90;;;11.70;97.20;;;;;;5053217;28;20287;-41
2021/04/30 04:34:04;;;;;;;1999.90;999.90;;;11.50;97.50;;;;;;5053218;28;20180;-41
2021/04/30 04:36:32;;;;;;;1999.90;999.90;;;11.40;98.30;;;;;;5053266;28;20201;-42
2021/04/30 04:38:59;;;;;;;1999.90;999.90;;;11.30;98.60;;;;;;5053178;28;20177;-42
2021/04/30 04:41:26;;;;;;;1999.90;999.90;;;11.10;98.80;;;;;;5052987;28;20225;-42
2021/04/30 04:43:53;;;;;;;1999.90;999.90;;;11.10;99.20;;;;;;5053179;28;20165;-41
2021/04/30 04:46:20;;;;;;;1999.90;999.90;;;11.10;99.80;;;;;;5053156;28;20181;-42
2021/04/30 04:48:47;;;;;;;1999.90;999.90;;;11.20;99.40;;;;;;5052287;28;20173;-42
2021/04/30 04:51:14;;;;;;;1999.90;999.90;;;11.20;99.20;;;;;;5052927;28;20617;-42
2021/04/30 04:53:41;;;;;;;1999.90;999.90;;;11.20;98.80;;;;;;5053070;28;20196;-43
2021/04/30 04:56:08;;;;;;;1999.90;999.90;;;11.20;98.90;;;;;;5052965;28;20639;-42
2021/04/30 04:58:34;;;;;;;1999.90;999.90;;;11.10;98.90;;;;;;5052934;28;20176;-43
2021/04/30 05:01:01;;;;;;;1999.90;999.90;;;11.10;99.60;;;;;;5052872;28;20181;-41
2021/04/30 05:03:28;;;;;;;1999.90;999.90;;;11.10;99.50;;;;;;5052898;28;20234;-41
2021/04/30 05:05:55;;;;;;;1999.90;999.90;;;10.80;99.90;;;;;;5052860;28;20628;-41
2021/04/30 05:08:22;;;;;;;1999.90;999.90;;;10.90;99.90;;;;;;5052843;28;20281;-41
2021/04/30 05:10:49;;;;;;;1999.90;999.90;;;10.80;99.90;;;;;;5052665;28;20292;-41
2021/04/30 05:13:16;;;;;;;1999.90;999.90;;;10.60;99.90;;;;;;5052618;28;20527;-41
2021/04/30 05:15:43;;;;;;;1999.90;999.90;;;10.60;99.90;;;;;;5052775;28;20201;-41
2021/04/30 05:18:09;;;;;;;1999.90;999.90;;;10.50;99.90;;;;;;5052809;28;20257;-41
2021/04/30 05:20:36;;;;;;;1999.90;999.90;;;10.40;99.90;;;;;;5052643;28;20184;-41
2021/04/30 05:23:03;;;;;;;1999.90;999.90;;;10.40;99.90;;;;;;5052652;28;20172;-42
2021/04/30 05:25:30;;;;;;;1999.90;999.90;;;10.40;99.90;;;;;;5052492;28;20176;-41
2021/04/30 05:27:57;;;;;;;1999.90;999.90;;;10.40;99.90;;;;;;5052468;28;20169;-43
2021/04/30 05:30:24;;;;;;;1999.90;999.90;;;10.40;99.90;;;;;;5052397;28;20383;-41
2021/04/30 05:32:51;;;;;;;1999.90;999.90;;;10.40;99.90;;;;;;5052430;28;20174;-42
2021/04/30 05:35:18;;;;;;;1999.90;999.90;;;10.40;99.90;;;;;;5052306;28;20173;-41
2021/04/30 05:37:45;;;;;;;1999.90;999.90;;;10.30;99.90;;;;;;5052516;28;20165;-41
2021/04/30 22:53:21;;;;;;;1999.90;999.90;;;11.30;99.90;;;;;;5048827;28;1941232;-41
2021/04/30 22:55:48;;;;;;;1999.90;999.90;;;11.40;99.90;;;;;;5114225;28;20633;-48
2021/04/30 22:58:16;;;;;;;1999.90;999.90;;;11.40;99.90;;;;;;5114001;28;20175;-41
2021/04/30 23:00:44;;;;;;;1999.90;999.90;;;11.40;99.90;;;;;;5113980;28;20178;-41
2021/04/30 23:03:11;;;;;;;1999.90;999.90;;;11.40;99.90;;;;;;5113931;28;20261;-42
2021/04/30 23:05:38;;;;;;;1999.90;999.90;;;11.40;99.90;;;;;;5114175;28;20163;-42
2021/04/30 23:08:05;;;;;;;1999.90;999.90;;;11.40;99.90;;;;;;5113787;28;20171;-42
2021/04/30 23:10:32;;;;;;;1999.90;999.90;;;11.40;99.90;;;;;;5114026;28;20644;-41
2021/04/30 23:12:59;;;;;;;1999.90;999.90;;;11.40;99.90;;;;;;5113878;28;20198;-42
2021/04/30 23:15:26;;;;;;;1999.90;999.90;;;11.40;99.90;;;;;;5113743;28;20163;-42
2021/04/30 23:17:53;;;;;;;1999.90;999.90;;;11.30;99.90;;;;;;5113586;28;20171;-42
2021/04/30 23:20:20;;;;;;;1999.90;999.90;;;11.30;99.90;;;;;;5113411;28;20171;-42
2021/04/30 23:22:47;;;;;;;1999.90;999.90;;;11.30;99.90;;;;;;5113764;28;20170;-41
2021/04/30 23:25:14;;;;;;;1999.90;999.90;;;11.10;99.90;;;;;;5113427;28;20275;-41
2021/04/30 23:27:42;;;;;;;1999.90;999.90;;;11.10;99.90;;;;;;5113615;28;20171;-52
2021/04/30 23:30:09;;;;;;;1999.90;999.90;;;11.10;99.90;;;;;;5113280;28;20171;-41
2021/04/30 23:32:36;;;;;;;1999.90;999.90;;;11.10;99.90;;;;;;5113194;28;20561;-42
2021/04/30 23:35:03;;;;;;;1999.90;999.90;;;11.10;99.90;;;;;;5113294;28;20183;-42
2021/04/30 23:37:30;;;;;;;1999.90;999.90;;;11.10;99.90;;;;;;5113342;28;20173;-41
2021/04/30 23:39:57;;;;;;;1999.90;999.90;;;11.00;99.90;;;;;;5113241;28;20167;-41
2021/04/30 23:42:24;;;;;;;1999.90;999.90;;;11.00;99.90;;;;;;5113352;28;20167;-41
2021/04/30 23:44:51;;;;;;;1999.90;999.90;;;11.00;99.90;;;;;;5113160;28;20163;-41
2021/04/30 23:47:18;;;;;;;1999.90;999.90;;;11.00;99.90;;;;;;5112978;28;20183;-41
2021/04/30 23:49:45;;;;;;;1999.90;999.90;;;11.00;99.90;;;;;;5113251;28;20296;-41
2021/04/30 23:52:12;;;;;;;1999.90;999.90;;;11.00;99.90;;;;;;5112879;28;20270;-41
2021/04/30 23:54:38;;;;;;;1999.90;999.90;;;11.00;99.90;;;;;;5113067;28;20250;-41
2021/04/30 23:57:05;;;;;;;1999.90;999.90;;;10.90;99.90;;;;;;5113339;28;20167;-41
2021/04/30 23:59:32;;;;;;;1999.90;999.90;;;10.80;99.90;;;;;;5113342;28;20170;-41
